createdAt,value
2022-09-15T00:02:20.891Z,98.79
2022-09-15T00:04:47.464Z,99.36
2022-09-15T00:07:14.176Z,100.00
2022-09-15T00:09:40.777Z,100.00
2022-09-15T00:12:07.328Z,100.00
2022-09-15T00:14:33.768Z,99.89
2022-09-15T00:17:00.280Z,98.90
2022-09-15T00:19:26.966Z,98.77
2022-09-15T00:21:53.612Z,99.26
2022-09-15T00:24:20.116Z,99.92
2022-09-15T00:26:46.627Z,100.00
2022-09-15T00:29:13.071Z,100.00
2022-09-15T00:31:39.616Z,100.00
2022-09-15T00:34:07.232Z,100.00
2022-09-15T00:36:34.111Z,100.00
2022-09-15T00:39:00.976Z,100.00
2022-09-15T00:41:28.124Z,100.00
2022-09-15T00:44:06.421Z,100.00
2022-09-15T00:46:39.881Z,100.00
2022-09-15T00:49:11.414Z,100.00
2022-09-15T00:51:54.982Z,100.00
2022-09-15T00:54:28.558Z,100.00
2022-09-15T00:56:57.080Z,100.00
2022-09-15T00:59:25.572Z,100.00
2022-09-15T01:02:11.437Z,100.00
2022-09-15T01:04:38.006Z,100.00
2022-09-15T01:07:05.871Z,100.00
2022-09-15T01:09:39.633Z,100.00
2022-09-15T01:12:06.274Z,100.00
2022-09-15T01:14:32.697Z,100.00
2022-09-15T01:17:06.850Z,100.00
2022-09-15T01:20:07.714Z,100.00
2022-09-15T01:22:56.055Z,100.00
2022-09-15T01:25:35.249Z,100.00
2022-09-15T01:28:39.039Z,100.00
2022-09-15T01:31:57.065Z,100.00
2022-09-15T01:34:24.556Z,100.00
2022-09-15T01:36:55.763Z,100.00
2022-09-15T01:39:27.067Z,100.00
2022-09-15T01:41:57.127Z,100.00
2022-09-15T01:44:28.145Z,100.00
2022-09-15T01:46:58.310Z,100.00
2022-09-15T01:49:27.029Z,100.00
2022-09-15T01:51:54.384Z,100.00
2022-09-15T01:54:28.889Z,100.00
2022-09-15T01:56:55.766Z,100.00
2022-09-15T01:59:22.318Z,100.00
2022-09-15T02:01:53.747Z,100.00
2022-09-15T02:04:27.844Z,100.00
2022-09-15T02:07:11.636Z,100.00
2022-09-15T02:10:02.144Z,100.00
2022-09-15T02:12:56.472Z,100.00
2022-09-15T02:15:51.626Z,100.00
2022-09-15T02:18:24.170Z,100.00
2022-09-15T02:20:53.689Z,100.00
2022-09-15T02:23:26.187Z,100.00
2022-09-15T02:26:06.389Z,100.00
2022-09-15T02:28:35.753Z,100.00
2022-09-15T02:31:03.633Z,100.00
2022-09-15T02:33:34.956Z,100.00
2022-09-15T02:36:02.417Z,100.00
2022-09-15T02:38:34.310Z,100.00
2022-09-15T02:41:01.229Z,100.00
2022-09-15T02:43:28.056Z,100.00
2022-09-15T02:45:55.155Z,100.00
2022-09-15T02:48:21.963Z,100.00
2022-09-15T02:50:48.391Z,100.00
2022-09-15T02:53:14.829Z,100.00
2022-09-15T02:55:41.964Z,100.00
2022-09-15T02:58:08.550Z,100.00
2022-09-15T03:00:35.018Z,100.00
2022-09-15T03:03:01.555Z,100.00
2022-09-15T03:05:29.490Z,100.00
2022-09-15T03:07:56.559Z,100.00
2022-09-15T03:10:24.471Z,100.00
2022-09-15T03:12:52.468Z,100.00
2022-09-15T03:15:21.466Z,100.00
2022-09-15T03:17:48.525Z,100.00
2022-09-15T03:20:18.607Z,100.00
2022-09-15T03:22:45.140Z,100.00
2022-09-15T03:25:11.700Z,100.00
2022-09-15T03:27:38.292Z,100.00
2022-09-15T03:30:06.270Z,100.00
2022-09-15T03:32:33.002Z,100.00
2022-09-15T03:34:59.631Z,100.00
2022-09-15T03:37:26.193Z,100.00
2022-09-15T03:39:52.698Z,100.00
2022-09-15T03:42:19.796Z,100.00
2022-09-15T03:44:46.230Z,100.00
2022-09-15T03:47:13.211Z,100.00
2022-09-15T03:49:39.682Z,100.00
2022-09-15T03:52:06.138Z,100.00
2022-09-15T03:54:32.664Z,100.00
2022-09-15T03:56:59.120Z,100.00
2022-09-15T03:59:25.545Z,100.00
2022-09-15T04:01:52.282Z,100.00
2022-09-15T04:04:18.775Z,100.00
2022-09-15T04:06:45.240Z,100.00
2022-09-15T04:09:11.779Z,100.00
2022-09-15T04:11:39.452Z,100.00
2022-09-15T04:14:05.892Z,100.00
2022-09-15T04:16:32.563Z,100.00
2022-09-15T04:18:59.338Z,100.00
2022-09-15T04:21:26.757Z,100.00
2022-09-15T04:23:54.015Z,100.00
2022-09-15T04:26:30.035Z,100.00
2022-09-15T04:29:00.510Z,100.00
2022-09-15T04:31:29.841Z,100.00
2022-09-15T04:33:57.207Z,100.00
2022-09-15T04:36:25.850Z,100.00
2022-09-15T04:38:52.834Z,100.00
2022-09-15T04:41:19.829Z,100.00
2022-09-15T04:43:46.913Z,100.00
2022-09-15T04:46:14.223Z,100.00
2022-09-15T04:48:41.433Z,100.00
2022-09-15T04:51:11.542Z,100.00
2022-09-15T04:53:38.337Z,100.00
2022-09-15T04:56:06.538Z,100.00
2022-09-15T04:58:44.067Z,100.00
2022-09-15T05:01:13.354Z,100.00
2022-09-15T05:03:40.502Z,100.00
2022-09-15T05:06:09.088Z,100.00
2022-09-15T05:08:35.690Z,100.00
2022-09-15T05:11:04.618Z,100.00
2022-09-15T05:13:32.108Z,100.00
2022-09-15T05:16:04.966Z,100.00
2022-09-15T05:18:33.229Z,100.00
2022-09-15T05:21:00.925Z,100.00
2022-09-15T05:23:27.874Z,100.00
2022-09-15T05:25:58.730Z,100.00
2022-09-15T05:28:25.181Z,100.00
2022-09-15T05:30:52.776Z,100.00
2022-09-15T05:33:20.315Z,100.00
2022-09-15T05:35:51.707Z,100.00
2022-09-15T05:38:18.212Z,100.00
2022-09-15T05:40:44.910Z,100.00
2022-09-15T05:43:11.349Z,100.00
2022-09-15T05:45:37.853Z,100.00
2022-09-15T05:48:04.681Z,100.00
2022-09-15T05:50:32.036Z,100.00
2022-09-15T05:52:58.595Z,100.00
2022-09-15T05:55:25.116Z,100.00
2022-09-15T05:57:51.647Z,100.00
2022-09-15T06:00:19.025Z,100.00
2022-09-15T06:02:45.660Z,100.00
2022-09-15T06:05:12.154Z,100.00
2022-09-15T06:07:39.039Z,100.00
2022-09-15T06:10:06.080Z,100.00
2022-09-15T06:12:33.063Z,100.00
2022-09-15T06:14:59.867Z,100.00
2022-09-15T06:17:26.478Z,99.84
2022-09-15T06:19:53.247Z,98.15
2022-09-15T06:22:19.908Z,96.55
2022-09-15T06:24:46.440Z,96.56
2022-09-15T06:27:12.932Z,96.61
2022-09-15T06:29:39.337Z,94.70
2022-09-15T06:32:06.154Z,95.68
2022-09-15T06:34:33.084Z,94.36
2022-09-15T06:36:59.989Z,93.23
2022-09-15T06:39:27.048Z,94.44
2022-09-15T06:42:02.371Z,92.97
2022-09-15T06:44:31.863Z,90.67
2022-09-15T06:46:58.428Z,90.44
2022-09-15T06:49:25.313Z,88.76
2022-09-15T06:51:51.916Z,87.68
2022-09-15T06:54:18.514Z,87.49
2022-09-15T06:56:45.115Z,86.50
2022-09-15T06:59:12.759Z,86.49
2022-09-15T07:01:39.615Z,86.46
2022-09-15T07:04:08.493Z,85.58
2022-09-15T07:06:35.187Z,84.46
2022-09-15T07:09:02.700Z,82.71
2022-09-15T07:11:29.864Z,78.33
2022-09-15T07:13:57.061Z,71.96
2022-09-15T07:16:25.881Z,68.41
2022-09-15T07:18:55.195Z,66.78
2022-09-15T07:21:21.794Z,65.42
2022-09-15T07:23:49.249Z,62.95
2022-09-15T07:26:18.539Z,67.33
2022-09-15T07:28:49.944Z,66.62
2022-09-15T07:31:18.777Z,66.90
2022-09-15T07:33:48.230Z,62.00
2022-09-15T07:36:18.033Z,59.47
2022-09-15T07:38:46.676Z,61.15
2022-09-15T07:41:16.084Z,64.94
2022-09-15T07:43:49.716Z,61.22
2022-09-15T07:46:17.680Z,50.34
2022-09-15T07:48:49.092Z,43.42
2022-09-15T07:51:16.760Z,37.65
2022-09-15T07:53:44.594Z,36.67
2022-09-15T07:56:11.521Z,34.08
2022-09-15T07:58:37.979Z,33.90
2022-09-15T08:01:07.281Z,36.45
2022-09-15T08:03:34.105Z,36.50
2022-09-15T08:06:01.703Z,41.78
2022-09-15T08:08:28.928Z,39.40
2022-09-15T08:10:55.817Z,35.80
2022-09-15T08:13:22.559Z,32.45
2022-09-15T08:15:49.280Z,31.71
2022-09-15T08:18:16.252Z,30.72
2022-09-15T08:20:43.819Z,32.29
2022-09-15T08:23:11.238Z,34.88
2022-09-15T08:25:40.618Z,39.99
2022-09-15T08:28:07.126Z,41.26
2022-09-15T08:30:33.655Z,44.25
2022-09-15T08:33:00.276Z,45.46
2022-09-15T08:35:26.734Z,47.12
2022-09-15T08:37:55.308Z,46.85
2022-09-15T08:40:32.378Z,46.37
2022-09-15T08:43:03.822Z,49.12
2022-09-15T08:45:40.266Z,48.28
2022-09-15T08:48:08.451Z,48.16
2022-09-15T08:50:44.803Z,49.22
2022-09-15T08:53:17.825Z,47.35
2022-09-15T08:55:48.727Z,48.41
2022-09-15T08:58:18.024Z,48.71
2022-09-15T09:00:46.059Z,46.68
2022-09-15T09:03:33.949Z,48.51
2022-09-15T09:06:10.540Z,49.39
2022-09-15T09:09:15.587Z,50.23
2022-09-15T09:11:48.305Z,51.32
2022-09-15T09:14:48.475Z,52.04
2022-09-15T09:18:08.217Z,50.66
2022-09-15T09:20:53.772Z,50.38
2022-09-15T09:23:24.025Z,49.94
2022-09-15T09:25:52.109Z,51.62
2022-09-15T09:28:32.829Z,54.05
2022-09-15T09:31:07.858Z,52.76
2022-09-15T09:33:47.359Z,52.75
2022-09-15T09:36:14.715Z,53.30
2022-09-15T09:38:44.160Z,53.97
2022-09-15T09:41:25.503Z,52.19
2022-09-15T09:43:55.759Z,52.51
2022-09-15T09:46:22.568Z,51.60
2022-09-15T09:48:54.829Z,52.63
2022-09-15T09:51:37.276Z,51.60
2022-09-15T09:54:11.827Z,50.89
2022-09-15T09:56:39.089Z,51.26
2022-09-15T09:59:05.725Z,53.67
2022-09-15T10:01:32.483Z,51.67
2022-09-15T10:04:19.284Z,51.48
2022-09-15T10:06:46.554Z,52.49
2022-09-15T10:09:18.076Z,52.82
2022-09-15T10:11:50.379Z,53.71
2022-09-15T10:14:22.208Z,52.34
2022-09-15T10:17:07.895Z,51.59
2022-09-15T10:19:55.188Z,52.07
2022-09-15T10:22:32.513Z,53.21
2022-09-15T10:25:01.039Z,54.25
2022-09-15T10:27:32.705Z,52.88
2022-09-15T10:30:12.473Z,52.97
2022-09-15T10:32:39.509Z,52.96
2022-09-15T10:35:18.609Z,52.74
2022-09-15T10:37:59.866Z,53.06
2022-09-15T10:40:33.724Z,55.63
2022-09-15T10:43:02.907Z,53.27
2022-09-15T10:45:39.905Z,53.30
2022-09-15T10:48:16.481Z,53.17
2022-09-15T10:51:02.344Z,53.46
2022-09-15T10:53:49.053Z,53.60
2022-09-15T10:56:18.303Z,55.99
2022-09-15T10:58:56.962Z,55.63
2022-09-15T11:01:29.417Z,55.97
2022-09-15T11:04:11.485Z,55.68
2022-09-15T11:06:49.175Z,55.91
2022-09-15T11:09:23.114Z,57.06
2022-09-15T11:11:55.107Z,57.64
2022-09-15T11:14:40.567Z,58.90
2022-09-15T11:17:29.133Z,58.29
2022-09-15T11:20:08.023Z,58.22
2022-09-15T11:22:39.119Z,57.24
2022-09-15T11:25:13.770Z,57.77
2022-09-15T11:27:43.932Z,57.46
2022-09-15T11:30:17.945Z,55.69
2022-09-15T11:33:05.689Z,55.35
2022-09-15T11:35:54.516Z,56.10
2022-09-15T11:38:48.338Z,56.77
2022-09-15T11:41:19.157Z,55.91
2022-09-15T11:43:58.217Z,55.59
2022-09-15T11:46:45.718Z,56.01
2022-09-15T11:49:18.103Z,57.05
2022-09-15T11:51:52.623Z,57.07
2022-09-15T11:54:45.133Z,58.39
2022-09-15T11:57:18.047Z,58.34
2022-09-15T12:00:05.166Z,58.65
2022-09-15T12:02:42.834Z,59.27
2022-09-15T12:05:24.819Z,60.55
2022-09-15T12:07:58.732Z,61.23
2022-09-15T12:10:35.539Z,60.55
2022-09-15T12:13:02.554Z,59.88
2022-09-15T12:15:29.366Z,60.78
2022-09-15T12:18:34.311Z,59.67
2022-09-15T12:21:02.033Z,60.01
2022-09-15T12:23:42.170Z,58.18
2022-09-15T12:26:16.110Z,58.92
2022-09-15T12:29:22.574Z,58.56
2022-09-15T12:31:49.037Z,57.81
2022-09-15T12:35:01.166Z,59.22
2022-09-15T12:37:47.268Z,59.15
2022-09-15T12:40:39.081Z,59.29
2022-09-15T12:43:12.633Z,59.36
2022-09-15T12:45:41.155Z,61.14
2022-09-15T12:48:16.611Z,61.15
2022-09-15T12:50:44.268Z,60.15
2022-09-15T12:53:29.081Z,60.21
2022-09-15T12:56:07.000Z,60.77
2022-09-15T12:58:36.727Z,60.84
2022-09-15T13:01:19.120Z,62.40
2022-09-15T13:03:45.892Z,61.59
2022-09-15T13:06:31.182Z,61.60
2022-09-15T13:09:06.436Z,61.08
2022-09-15T13:14:16.679Z,58.30
2022-09-15T13:17:04.088Z,58.75
2022-09-15T13:19:33.222Z,58.84
2022-09-15T13:22:36.296Z,59.53
2022-09-15T13:25:13.888Z,60.24
2022-09-15T13:27:50.472Z,59.76
2022-09-15T13:30:41.196Z,59.95
2022-09-15T13:39:53.803Z,59.65
2022-09-15T13:42:44.880Z,60.22
2022-09-15T13:45:29.517Z,59.65
2022-09-15T13:47:58.720Z,61.06
2022-09-15T13:50:49.093Z,60.81
2022-09-15T13:53:24.267Z,61.21
2022-09-15T13:55:51.818Z,62.02
2022-09-15T14:01:12.443Z,61.49
2022-09-15T14:03:38.864Z,61.61
2022-09-15T14:06:35.574Z,60.66
2022-09-15T14:09:08.589Z,59.42
2022-09-15T14:11:36.587Z,59.77
2022-09-15T14:14:04.352Z,59.78
2022-09-15T14:16:36.177Z,60.56
2022-09-15T14:19:24.532Z,62.61
2022-09-15T14:21:53.764Z,63.07
2022-09-15T14:24:30.098Z,63.01
2022-09-15T14:27:03.347Z,63.11
2022-09-15T14:29:30.068Z,62.83
2022-09-15T14:32:00.766Z,61.86
2022-09-15T14:34:31.158Z,61.47
2022-09-15T14:37:12.947Z,61.24
2022-09-15T14:39:40.460Z,60.73
2022-09-15T14:42:30.949Z,61.31
2022-09-15T14:48:16.621Z,58.60
2022-09-15T14:50:44.636Z,58.37
2022-09-15T14:53:18.894Z,59.26
2022-09-15T14:55:56.795Z,59.10
2022-09-15T14:58:24.459Z,59.30
2022-09-15T15:00:59.386Z,59.21
2022-09-15T15:03:28.503Z,59.41
2022-09-15T15:06:12.756Z,58.92
2022-09-15T15:09:00.355Z,59.68
2022-09-15T15:11:28.013Z,59.83
2022-09-15T15:13:55.125Z,60.88
2022-09-15T15:16:29.944Z,60.40
2022-09-15T15:18:57.252Z,61.09
2022-09-15T15:21:38.696Z,61.38
2022-09-15T15:24:13.697Z,61.69
2022-09-15T15:26:42.397Z,62.57
2022-09-15T15:29:45.507Z,63.02
2022-09-15T15:32:21.233Z,64.15
2022-09-15T15:34:54.547Z,65.31
2022-09-15T15:37:27.907Z,66.57
2022-09-15T15:39:56.299Z,67.05
2022-09-15T15:42:24.057Z,66.40
2022-09-15T15:45:16.556Z,66.89
2022-09-15T15:47:43.032Z,68.06
2022-09-15T15:50:13.686Z,67.66
2022-09-15T15:52:41.789Z,68.21
2022-09-15T15:55:08.530Z,67.81
2022-09-15T15:57:38.185Z,68.98
2022-09-15T16:00:16.557Z,68.37
2022-09-15T16:02:46.429Z,68.27
2022-09-15T16:05:13.647Z,67.86
2022-09-15T16:07:40.691Z,69.02
2022-09-15T16:10:08.516Z,68.80
2022-09-15T16:12:35.589Z,68.52
2022-09-15T16:15:02.935Z,68.60
2022-09-15T16:17:29.532Z,68.66
2022-09-15T16:19:56.075Z,69.03
2022-09-15T16:22:22.509Z,69.60
2022-09-15T16:24:48.985Z,70.84
2022-09-15T16:27:17.783Z,70.57
2022-09-15T16:29:45.344Z,70.60
2022-09-15T16:32:18.656Z,71.80
2022-09-15T16:34:45.498Z,72.42
2022-09-15T16:37:12.474Z,73.29
2022-09-15T16:39:39.044Z,73.66
2022-09-15T16:42:05.865Z,73.87
2022-09-15T16:44:32.747Z,74.75
2022-09-15T16:46:59.573Z,75.11
2022-09-15T16:49:26.156Z,76.18
2022-09-15T16:51:53.057Z,76.66
2022-09-15T16:54:23.116Z,76.59
2022-09-15T16:56:49.558Z,77.28
2022-09-15T16:59:16.277Z,77.96
2022-09-15T17:01:42.894Z,78.25
2022-09-15T17:04:13.922Z,78.68
2022-09-15T17:06:40.363Z,78.73
2022-09-15T17:09:06.942Z,78.37
2022-09-15T17:11:33.460Z,78.64
2022-09-15T17:14:00.526Z,79.48
2022-09-15T17:16:27.318Z,80.31
2022-09-15T17:18:53.809Z,81.31
2022-09-15T17:21:20.516Z,80.24
2022-09-15T17:23:49.204Z,80.89
2022-09-15T17:26:20.085Z,81.76
2022-09-15T17:28:47.089Z,81.70
2022-09-15T17:31:16.656Z,81.84
2022-09-15T17:33:44.096Z,82.13
2022-09-15T17:36:10.943Z,82.43
2022-09-15T17:38:37.372Z,82.06
2022-09-15T17:41:03.875Z,82.82
2022-09-15T17:43:31.793Z,83.03
2022-09-15T17:45:58.444Z,84.06
2022-09-15T17:48:25.417Z,84.35
2022-09-15T17:50:52.432Z,84.58
2022-09-15T17:53:24.172Z,85.03
2022-09-15T17:55:50.995Z,84.72
2022-09-15T17:58:18.337Z,85.02
2022-09-15T18:00:46.115Z,85.84
2022-09-15T18:03:30.952Z,85.77
2022-09-15T18:05:59.002Z,85.78
2022-09-15T18:08:26.291Z,86.31
2022-09-15T18:10:52.802Z,86.06
2022-09-15T18:13:21.646Z,86.45
2022-09-15T18:15:51.554Z,86.69
2022-09-15T18:18:24.155Z,87.26
2022-09-15T18:20:52.956Z,87.60
2022-09-15T18:23:24.252Z,87.88
2022-09-15T18:25:50.957Z,88.15
2022-09-15T18:28:18.218Z,87.47
2022-09-15T18:30:47.466Z,87.70
2022-09-15T18:33:22.229Z,88.11
2022-09-15T18:35:50.430Z,89.10
2022-09-15T18:38:17.576Z,89.53
2022-09-15T18:40:49.271Z,89.26
2022-09-15T18:43:16.639Z,89.66
2022-09-15T18:45:43.131Z,90.63
2022-09-15T18:48:12.912Z,91.12
2022-09-15T18:50:40.727Z,91.63
2022-09-15T18:53:07.446Z,92.42
2022-09-15T18:55:33.920Z,92.98
2022-09-15T18:58:01.247Z,93.06
2022-09-15T19:00:29.445Z,93.59
2022-09-15T19:03:00.568Z,93.75
2022-09-15T19:05:28.533Z,93.81
2022-09-15T19:07:55.373Z,93.82
2022-09-15T19:10:22.162Z,94.02
2022-09-15T19:12:48.662Z,93.87
2022-09-15T19:15:15.777Z,93.95
2022-09-15T19:17:42.903Z,93.88
2022-09-15T19:20:11.747Z,93.74
2022-09-15T19:22:38.398Z,94.09
2022-09-15T19:25:06.087Z,93.86
2022-09-15T19:27:32.738Z,94.44
2022-09-15T19:29:59.958Z,94.66
2022-09-15T19:32:27.045Z,94.99
2022-09-15T19:34:53.561Z,95.49
2022-09-15T19:37:21.447Z,96.15
2022-09-15T19:39:48.781Z,96.27
2022-09-15T19:44:47.901Z,96.60
2022-09-15T19:47:14.628Z,96.74
2022-09-15T19:49:41.096Z,97.11
2022-09-15T19:52:07.816Z,97.50
2022-09-15T19:54:34.721Z,97.57
2022-09-15T19:57:01.636Z,98.04
2022-09-15T19:59:31.371Z,98.17
2022-09-15T20:01:59.518Z,98.00
2022-09-15T20:04:26.454Z,98.80
2022-09-15T20:06:52.998Z,98.18
2022-09-15T20:09:19.444Z,98.68
2022-09-15T20:11:45.976Z,99.15
2022-09-15T20:14:12.468Z,99.38
2022-09-15T20:16:39.339Z,99.29
2022-09-15T20:19:06.120Z,99.34
2022-09-15T20:21:51.123Z,99.63
2022-09-15T20:24:19.595Z,99.65
2022-09-15T20:26:46.242Z,99.55
2022-09-15T20:29:13.208Z,99.04
2022-09-15T20:31:40.173Z,100.00
2022-09-15T20:34:06.667Z,100.00
2022-09-15T20:36:36.388Z,100.00
2022-09-15T20:39:04.936Z,100.00
2022-09-15T20:41:32.234Z,100.00
2022-09-15T20:43:59.081Z,100.00
2022-09-15T20:46:26.060Z,100.00
2022-09-15T20:48:52.790Z,100.00
2022-09-15T20:51:22.813Z,100.00
2022-09-15T20:53:51.830Z,100.00
2022-09-15T20:56:21.155Z,100.00
2022-09-15T20:58:48.056Z,100.00
2022-09-15T21:01:16.655Z,100.00
2022-09-15T21:03:44.485Z,100.00
2022-09-15T21:06:13.023Z,100.00
2022-09-15T21:08:39.915Z,100.00
2022-09-15T21:11:10.640Z,100.00
2022-09-15T21:13:38.690Z,100.00
2022-09-15T21:16:08.169Z,100.00
2022-09-15T21:18:39.186Z,100.00
2022-09-15T21:21:07.991Z,100.00
2022-09-15T21:23:42.693Z,100.00
2022-09-15T21:26:17.269Z,100.00
2022-09-15T21:28:44.952Z,100.00
2022-09-15T21:31:14.980Z,100.00
2022-09-15T21:33:42.256Z,100.00
2022-09-15T21:36:17.398Z,100.00
2022-09-15T21:38:44.346Z,100.00
2022-09-15T21:41:13.760Z,100.00
2022-09-15T21:43:41.961Z,100.00
2022-09-15T21:46:11.780Z,100.00
2022-09-15T21:48:38.612Z,100.00
2022-09-15T21:51:05.972Z,100.00
2022-09-15T21:53:33.875Z,100.00
2022-09-15T21:56:05.560Z,100.00
2022-09-15T21:58:37.930Z,100.00
2022-09-15T22:01:29.870Z,100.00
2022-09-15T22:03:59.163Z,100.00
2022-09-15T22:06:30.528Z,100.00
2022-09-15T22:08:58.772Z,100.00
2022-09-15T22:11:25.283Z,100.00
2022-09-15T22:13:51.787Z,100.00
2022-09-15T22:16:21.296Z,100.00
2022-09-15T22:18:47.914Z,100.00
2022-09-15T22:21:19.669Z,100.00
2022-09-15T22:23:47.798Z,100.00
2022-09-15T22:26:19.073Z,100.00
2022-09-15T22:28:45.827Z,100.00
2022-09-15T22:31:13.809Z,100.00
2022-09-15T22:33:43.117Z,100.00
2022-09-15T22:36:11.642Z,100.00
2022-09-15T22:38:38.710Z,100.00
2022-09-15T22:41:08.950Z,100.00
2022-09-15T22:43:36.299Z,100.00
2022-09-15T22:46:04.873Z,100.00
2022-09-15T22:48:32.299Z,100.00
2022-09-15T22:50:59.249Z,100.00
2022-09-15T22:53:25.927Z,100.00
2022-09-15T22:55:53.468Z,100.00
2022-09-15T22:58:19.930Z,100.00
2022-09-15T23:00:46.493Z,100.00
2022-09-15T23:03:13.333Z,100.00
2022-09-15T23:05:39.823Z,100.00
2022-09-15T23:08:06.294Z,100.00
2022-09-15T23:10:33.240Z,100.00
2022-09-15T23:12:59.870Z,100.00
2022-09-15T23:15:26.518Z,100.00
2022-09-15T23:17:53.082Z,100.00
2022-09-15T23:20:19.484Z,100.00
2022-09-15T23:22:45.952Z,100.00
2022-09-15T23:25:12.523Z,100.00
2022-09-15T23:27:38.996Z,100.00
2022-09-15T23:30:05.745Z,100.00
2022-09-15T23:32:32.357Z,100.00
2022-09-15T23:34:58.775Z,100.00
2022-09-15T23:37:25.273Z,100.00
2022-09-15T23:39:52.340Z,100.00
2022-09-15T23:42:19.198Z,100.00
2022-09-15T23:44:45.784Z,100.00
2022-09-15T23:47:12.209Z,100.00
2022-09-15T23:49:38.630Z,100.00
2022-09-15T23:52:05.040Z,100.00
2022-09-15T23:54:32.316Z,100.00
2022-09-15T23:56:58.761Z,100.00
2022-09-15T23:59:25.266Z,100.00
